Time;durP1;ratioP1;P1;durP2;ratioP2;P2;SDS_P1;SDS_P2;PMS_P1;PMS_P2;Temp;Humidity;BMP_temperature;BMP_pressure;BME280_temperature;BME280_humidity;BME280_pressure;Samples;Min_cycle;Max_cycle;Signal;HPM_P1;HPM_P2
2022/05/05 00:00:56;;;;;;;0.32;0.32;;;;;;;8.11;100.00;97778.97;5040020;28;20047;-89
2022/05/05 00:03:22;;;;;;;1.35;0.70;;;;;;;8.03;100.00;97759.81;5041624;28;20010;-89
2022/05/05 00:05:48;;;;;;;2.25;1.02;;;;;;;8.22;100.00;97781.09;5056332;28;20528;-87
2022/05/05 00:08:14;;;;;;;2.35;0.80;;;;;;;8.20;100.00;97782.97;5040436;28;20024;-89
2022/05/05 00:16:08;;;;;;;0.88;0.80;;;;;;;8.22;100.00;97782.88;5056143;28;20063;-90
2022/05/05 00:18:34;;;;;;;0.98;0.88;;;;;;;8.20;100.00;97775.00;5039947;28;20032;-90
2022/05/05 00:20:59;;;;;;;0.65;0.65;;;;;;;8.18;100.00;97783.03;5055618;28;20408;-90
2022/05/05 00:23:26;;;;;;;1.65;0.90;;;;;;;8.12;100.00;97764.69;5055702;28;20047;-88
2022/05/05 00:25:51;;;;;;;0.88;0.70;;;;;;;8.16;100.00;97771.59;5053607;28;20366;-89
2022/05/05 00:28:17;;;;;;;0.70;0.70;;;;;;;8.17;100.00;97781.34;5056092;28;20059;-88
2022/05/05 00:30:45;;;;;;;1.52;0.90;;;;;;;8.08;100.00;97755.16;5045653;28;20051;-90
2022/05/05 00:33:11;;;;;;;2.53;0.90;;;;;;;8.15;100.00;97756.53;5054521;28;20021;-90
2022/05/05 00:35:37;;;;;;;2.80;1.92;;;;;;;8.25;100.00;97769.41;5056086;28;20021;-89
2022/05/05 00:38:03;;;;;;;1.23;1.10;;;;;;;8.23;100.00;97769.50;5056738;28;20055;-89
2022/05/05 00:40:30;;;;;;;1.25;0.70;;;;;;;8.29;100.00;97774.56;5056082;28;20020;-89
2022/05/05 00:42:57;;;;;;;1.45;1.17;;;;;;;8.42;100.00;97780.16;5055868;28;20413;-89
2022/05/05 00:45:23;;;;;;;0.30;0.30;;;;;;;8.44;100.00;97773.81;5054126;28;20176;-90
2022/05/05 00:47:49;;;;;;;1.73;1.48;;;;;;;8.43;100.00;97773.91;5037388;28;20112;-89
2022/05/05 00:50:15;;;;;;;1.73;1.33;;;;;;;8.51;100.00;97777.03;5037987;28;20094;-89
2022/05/05 00:52:41;;;;;;;0.77;0.75;;;;;;;8.56;100.00;97775.00;5055710;28;20059;-90
2022/05/05 00:55:07;;;;;;;2.35;1.08;;;;;;;8.53;100.00;97783.13;5054980;28;20033;-90
2022/05/05 00:57:35;;;;;;;0.50;0.50;;;;;;;8.49;100.00;97763.78;5055390;28;20661;-91
2022/05/05 01:00:01;;;;;;;2.72;1.80;;;;;;;8.58;100.00;97771.31;5038269;28;20031;-90
2022/05/05 01:02:26;;;;;;;3.60;1.70;;;;;;;8.59;100.00;97761.50;5054327;28;20029;-88
2022/05/05 01:04:52;;;;;;;0.85;0.73;;;;;;;8.65;100.00;97767.41;5038592;28;20028;-91
2022/05/05 01:07:18;;;;;;;1.75;1.30;;;;;;;8.67;100.00;97776.16;5055854;28;20346;-91
2022/05/05 01:09:44;;;;;;;0.35;0.35;;;;;;;8.68;100.00;97771.69;5038045;28;20039;-89
2022/05/05 01:12:10;;;;;;;0.98;0.98;;;;;;;8.73;100.00;97777.69;5040066;28;20037;-90
2022/05/05 01:14:36;;;;;;;6.43;1.20;;;;;;;8.80;100.00;97786.25;5058687;28;20040;-89
2022/05/05 01:17:02;;;;;;;0.82;0.55;;;;;;;8.77;100.00;97765.06;5038912;28;20036;-89
2022/05/05 01:19:28;;;;;;;0.90;0.90;;;;;;;8.77;100.00;97765.91;5057681;28;20481;-89
2022/05/05 01:21:55;;;;;;;3.42;0.73;;;;;;;8.86;100.00;97768.09;5058996;28;20033;-88
2022/05/05 01:28:10;;;;;;;2.33;1.55;;;;;;;8.81;100.00;97764.81;5037531;28;20056;-89
2022/05/05 01:29:51;;;;;;;2.25;1.90;;;;;;;8.81;100.00;97783.47;5052664;28;20064;-89
2022/05/05 01:32:17;;;;;;;1.73;1.10;;;;;;;8.78;100.00;97777.44;5035582;28;20063;-88
2022/05/05 01:34:43;;;;;;;2.20;1.10;;;;;;;8.69;100.00;97778.78;5047378;28;20424;-89
2022/05/05 01:37:09;;;;;;;1.45;0.95;;;;;;;8.64;100.00;97770.16;5053308;28;20033;-89
2022/05/05 01:39:34;;;;;;;1.05;0.85;;;;;;;8.69;100.00;97773.44;5035540;28;20021;-89
2022/05/05 01:42:00;;;;;;;3.33;1.63;;;;;;;8.56;100.00;97753.66;5041036;28;20036;-90
2022/05/05 01:44:26;;;;;;;2.15;1.17;;;;;;;8.59;100.00;97766.84;5040513;28;20056;-88
2022/05/05 01:46:54;;;;;;;2.13;1.00;;;;;;;8.50;100.00;97756.63;5058079;28;20051;-89
2022/05/05 01:49:20;;;;;;;2.47;1.38;;;;;;;8.62;100.00;97793.34;5041847;28;20412;-89
2022/05/05 01:51:46;;;;;;;0.75;0.75;;;;;;;8.58;100.00;97781.13;5041283;28;20024;-89
2022/05/05 01:54:12;;;;;;;1.55;1.10;;;;;;;8.54;100.00;97769.75;5040422;28;20029;-88
2022/05/05 01:56:37;;;;;;;1.73;1.42;;;;;;;8.65;100.00;97782.53;5041515;28;20041;-89
2022/05/05 01:59:03;;;;;;;0.47;0.47;;;;;;;8.65;100.00;97793.19;5057312;28;20489;-89
2022/05/05 02:01:29;;;;;;;2.88;1.73;;;;;;;8.62;100.00;97801.34;5056933;28;20032;-89
2022/05/05 02:03:54;;;;;;;0.60;0.60;;;;;;;8.67;100.00;97812.66;5041431;28;20440;-88
2022/05/05 02:06:20;;;;;;;1.65;1.02;;;;;;;8.56;100.00;97793.66;5040286;28;20432;-89
2022/05/05 02:08:45;;;;;;;1.50;1.40;;;;;;;8.57;100.00;97806.06;5039777;28;20052;-88
2022/05/05 02:11:11;;;;;;;1.35;1.00;;;;;;;8.57;100.00;97798.06;5039257;28;20063;-89
2022/05/05 02:13:37;;;;;;;6.78;1.20;;;;;;;8.60;100.00;97805.91;5038789;28;20113;-90
2022/05/05 02:16:04;;;;;;;1.85;1.55;;;;;;;8.62;100.00;97812.00;5055691;28;20108;-89
2022/05/05 02:18:31;;;;;;;3.33;1.50;;;;;;;8.68;100.00;97819.69;5057294;28;20116;-89
2022/05/05 02:20:56;;;;;;;1.40;1.30;;;;;;;8.60;100.00;97812.09;5057607;28;20028;-89
2022/05/05 02:23:23;;;;;;;1.75;1.38;;;;;;;8.62;100.00;97820.00;5038998;28;20114;-90
2022/05/05 02:25:48;;;;;;;0.95;0.95;;;;;;;8.63;100.00;97821.75;5041632;28;20322;-90
2022/05/05 02:28:14;;;;;;;2.78;1.02;;;;;;;8.62;100.00;97828.88;5058287;28;20067;-89
2022/05/05 02:30:40;;;;;;;1.60;1.50;;;;;;;8.56;100.00;97831.84;5041120;28;20029;-89
2022/05/05 02:33:05;;;;;;;1.83;1.08;;;;;;;8.58;100.00;97829.13;5057243;28;20029;-90
2022/05/05 02:35:31;;;;;;;2.25;1.33;;;;;;;8.49;100.00;97829.56;5041653;28;20029;-90
2022/05/05 02:40:41;;;;;;;0.95;0.93;;;;;;;8.57;100.00;97838.03;5060174;28;20574;-89
2022/05/05 02:43:07;;;;;;;3.08;0.75;;;;;;;8.54;100.00;97835.53;5057730;28;20045;-91
2022/05/05 02:45:32;;;;;;;1.90;1.52;;;;;;;8.53;100.00;97841.78;5041914;28;20508;-90
2022/05/05 02:47:59;;;;;;;2.05;1.38;;;;;;;8.48;100.00;97835.84;5041473;28;20404;-90
2022/05/05 02:50:24;;;;;;;1.10;0.95;;;;;;;8.40;100.00;97828.19;5040203;28;20025;-89
2022/05/05 02:52:50;;;;;;;2.67;1.27;;;;;;;8.38;100.00;97830.09;5056944;28;20572;-91
2022/05/05 02:55:16;;;;;;;2.90;2.00;;;;;;;8.37;100.00;97838.13;5045119;28;20408;-90
2022/05/05 02:57:42;;;;;;;3.35;2.33;;;;;;;8.37;100.00;97831.00;5043876;28;20420;-90
2022/05/05 03:00:11;;;;;;;3.40;1.95;;;;;;;8.41;100.00;97837.06;5045617;28;20033;-91
2022/05/05 03:02:37;;;;;;;0.70;0.63;;;;;;;8.27;100.00;97828.84;5044333;28;20033;-90
2022/05/05 03:05:03;;;;;;;1.00;0.90;;;;;;;8.18;100.00;97817.69;5045404;28;20017;-91
2022/05/05 03:07:29;;;;;;;1.85;1.40;;;;;;;8.27;100.00;97811.06;5055071;28;20025;-91
2022/05/05 03:09:55;;;;;;;1.13;1.05;;;;;;;8.32;100.00;97826.84;5044494;28;20048;-90
2022/05/05 03:12:21;;;;;;;1.60;1.50;;;;;;;8.29;100.00;97824.34;5043918;28;20115;-90
2022/05/05 03:14:47;;;;;;;1.85;1.45;;;;;;;8.30;100.00;97818.06;5058023;28;20467;-90
2022/05/05 03:17:14;;;;;;;1.67;1.33;;;;;;;8.46;100.00;97843.06;5040813;28;20029;-89
2022/05/05 03:19:40;;;;;;;1.40;1.25;;;;;;;8.26;100.00;97820.00;5042517;28;20067;-91
2022/05/05 03:22:06;;;;;;;1.58;1.33;;;;;;;8.24;100.00;97845.84;5043771;28;20053;-90
2022/05/05 03:24:32;;;;;;;1.05;0.98;;;;;;;8.18;100.00;97828.34;5043961;28;20080;-90
2022/05/05 03:27:00;;;;;;;1.13;1.00;;;;;;;8.43;100.00;97867.19;5059299;28;20523;-89
2022/05/05 03:29:26;;;;;;;1.08;1.05;;;;;;;8.28;100.00;97846.56;5056797;28;20029;-90
2022/05/05 03:31:51;;;;;;;1.65;0.93;;;;;;;8.26;100.00;97841.31;5040449;28;20037;-87
2022/05/05 03:34:17;;;;;;;2.92;1.08;;;;;;;8.23;100.00;97853.91;5058868;28;20444;-89
2022/05/05 03:36:43;;;;;;;3.40;2.38;;;;;;;8.33;100.00;97865.91;5055530;28;20500;-87
2022/05/05 03:39:09;;;;;;;1.83;1.00;;;;;;;8.27;100.00;97860.81;5038580;28;20032;-86
2022/05/05 03:41:34;;;;;;;2.72;0.98;;;;;;;8.18;100.00;97836.31;5053685;28;20327;-87
2022/05/05 03:44:00;;;;;;;1.25;0.73;;;;;;;8.32;100.00;97870.34;5053761;28;20036;-88
2022/05/05 03:46:26;;;;;;;0.82;0.75;;;;;;;8.16;100.00;97835.56;5056360;28;20036;-87
2022/05/05 03:48:52;;;;;;;0.47;0.47;;;;;;;8.45;100.00;97879.50;5055176;28;20037;-89
2022/05/05 03:51:18;;;;;;;1.42;0.75;;;;;;;8.34;100.00;97863.13;5039549;28;20108;-88
2022/05/05 03:53:44;;;;;;;1.17;1.08;;;;;;;8.41;100.00;97867.25;5055460;28;20102;-87
2022/05/05 03:56:10;;;;;;;1.25;1.15;;;;;;;8.45;100.00;97857.31;5038907;28;20077;-87
2022/05/05 03:58:35;;;;;;;0.73;0.73;;;;;;;8.60;100.00;97869.88;5057687;28;20078;-89
2022/05/05 04:01:02;;;;;;;0.90;0.85;;;;;;;8.54;100.00;97871.06;5040232;28;20033;-89
2022/05/05 04:03:32;;;;;;;0.77;0.77;;;;;;;8.68;100.00;97894.38;5055909;28;20028;-89
2022/05/05 04:06:05;;;;;;;0.85;0.70;;;;;;;8.68;100.00;97873.03;5041537;28;20025;-93
2022/05/05 04:08:32;;;;;;;0.17;0.17;;;;;;;8.83;100.00;97877.59;5033976;28;20037;-77
2022/05/05 04:10:58;;;;;;;0.70;0.70;;;;;;;8.64;100.00;97884.81;5049780;28;20433;-75
2022/05/05 04:13:28;;;;;;;2.58;1.42;;;;;;;8.78;100.00;97894.78;5057056;28;20043;-87
2022/05/05 04:15:54;;;;;;;1.90;1.80;;;;;;;8.60;100.00;97883.22;5060645;28;20044;-87
2022/05/05 04:18:20;;;;;;;1.10;1.08;;;;;;;8.69;100.00;97907.63;5052335;28;20488;-89
2022/05/05 04:20:47;;;;;;;1.50;1.10;;;;;;;8.81;100.00;97903.50;5033726;28;20051;-89
2022/05/05 04:23:13;;;;;;;3.83;1.58;;;;;;;8.79;100.00;97901.84;5035644;28;20063;-88
2022/05/05 04:25:42;;;;;;;0.63;0.63;;;;;;;8.79;100.00;97902.72;5036681;28;20029;-92
2022/05/05 04:28:09;;;;;;;8.93;2.17;;;;;;;8.89;100.00;97906.63;5037442;28;20088;-91
2022/05/05 04:30:35;;;;;;;0.93;0.90;;;;;;;8.99;100.00;97894.59;5055033;28;20115;-90
2022/05/05 04:33:02;;;;;;;1.35;1.25;;;;;;;9.16;100.00;97909.75;5054029;28;20037;-90
2022/05/05 04:35:28;;;;;;;0.50;0.50;;;;;;;9.25;100.00;97914.63;5057182;28;20025;-89
2022/05/05 04:38:07;;;;;;;1.17;1.08;;;;;;;9.25;100.00;97902.16;5057507;28;20094;-90
2022/05/05 04:40:33;;;;;;;2.13;1.35;;;;;;;9.24;100.00;97899.53;5056414;28;21516;-91
2022/05/05 04:42:59;;;;;;;1.88;1.77;;;;;;;9.42;100.00;97914.63;5031615;28;20025;-91
2022/05/05 04:45:24;;;;;;;1.27;1.00;;;;;;;9.38;100.00;97894.38;5039008;28;20143;-90
2022/05/05 04:47:50;;;;;;;1.83;1.50;;;;;;;9.57;100.00;97912.94;5054917;28;20131;-90
2022/05/05 04:50:16;;;;;;;2.75;1.80;;;;;;;9.71;100.00;97921.13;5038403;28;20025;-90
2022/05/05 04:52:44;;;;;;;0.82;0.82;;;;;;;9.92;100.00;97919.97;5059195;28;20039;-89
2022/05/05 04:55:10;;;;;;;14.55;3.03;;;;;;;9.77;100.00;97904.78;5061884;28;20033;-91
2022/05/05 04:57:38;;;;;;;4.97;1.77;;;;;;;9.87;100.00;97911.38;5045268;28;20063;-91
2022/05/05 05:00:06;;;;;;;5.18;1.75;;;;;;;9.99;100.00;97920.53;5030463;28;20036;-90
2022/05/05 05:02:32;;;;;;;1.80;1.38;;;;;;;10.04;100.00;97913.97;5062936;28;20033;-91
2022/05/05 05:04:58;;;;;;;2.90;1.75;;;;;;;9.71;100.00;97894.41;5047802;28;20056;-92
2022/05/05 05:07:23;;;;;;;2.28;2.00;;;;;;;9.80;100.00;97893.94;5044094;28;20036;-90
2022/05/05 05:09:49;;;;;;;2.92;2.22;;;;;;;9.84;100.00;97883.94;5047167;28;20045;-89
2022/05/05 05:12:17;;;;;;;6.38;2.42;;;;;;;10.22;100.00;97934.41;5052036;28;20040;-90
2022/05/05 05:14:42;;;;;;;3.08;2.15;;;;;;;10.16;100.00;97916.03;5048131;28;20033;-90
2022/05/05 05:17:08;;;;;;;5.60;2.63;;;;;;;10.17;100.00;97924.91;5053176;28;20463;-90
2022/05/05 05:19:34;;;;;;;1.45;1.35;;;;;;;10.26;100.00;97905.69;5048520;28;20040;-90
2022/05/05 05:22:00;;;;;;;2.10;1.85;;;;;;;10.18;100.00;97886.56;5068841;28;20052;-90
2022/05/05 05:24:26;;;;;;;1.73;1.63;;;;;;;10.31;100.00;97907.16;5057605;28;20561;-90
2022/05/05 05:26:52;;;;;;;2.20;1.92;;;;;;;10.12;100.00;97898.38;5053734;28;20033;-90
2022/05/05 05:29:18;;;;;;;3.20;2.42;;;;;;;10.47;100.00;97917.00;5058335;28;20029;-90
2022/05/05 05:31:43;;;;;;;3.85;2.45;;;;;;;10.10;100.00;97912.78;5060055;28;20039;-90
2022/05/05 05:34:09;;;;;;;3.58;2.38;;;;;;;10.44;100.00;97939.44;5058496;28;20408;-90
2022/05/05 05:36:35;;;;;;;5.22;1.60;;;;;;;10.61;100.00;97919.78;5041560;28;20100;-89
2022/05/05 05:39:01;;;;;;;3.88;2.78;;;;;;;10.87;100.00;97937.91;5057516;28;20065;-91
2022/05/05 05:41:27;;;;;;;6.32;1.73;;;;;;;10.93;100.00;97931.31;5059124;28;20044;-89
2022/05/05 05:43:53;;;;;;;5.20;1.67;;;;;;;11.03;100.00;97916.47;5045210;28;20032;-89
2022/05/05 05:46:19;;;;;;;1.63;1.23;;;;;;;11.06;100.00;97930.53;5045974;28;20438;-90
2022/05/05 05:48:44;;;;;;;2.20;1.40;;;;;;;10.85;100.00;97929.97;5061930;28;20124;-89
2022/05/05 05:51:10;;;;;;;5.45;1.83;;;;;;;10.59;100.00;97917.19;5061462;28;20415;-90
2022/05/05 05:53:36;;;;;;;1.55;0.68;;;;;;;11.07;100.00;97942.13;5043180;28;20021;-90
2022/05/05 05:56:01;;;;;;;5.97;3.13;;;;;;;11.20;100.00;97932.41;5041099;28;20502;-91
2022/05/05 05:58:27;;;;;;;4.22;2.45;;;;;;;11.32;100.00;97962.00;5041947;28;20029;-90
2022/05/05 06:00:53;;;;;;;3.03;1.75;;;;;;;11.02;100.00;97930.78;5062409;28;20032;-90
2022/05/05 06:06:03;;;;;;;6.68;2.47;;;;;;;11.21;100.00;97948.41;5063761;28;20039;-91
2022/05/05 06:08:29;;;;;;;3.25;1.65;;;;;;;11.52;100.00;97931.38;5064295;28;20047;-90
2022/05/05 06:10:54;;;;;;;0.85;0.82;;;;;;;11.69;100.00;97938.44;5061379;28;20052;-90
2022/05/05 06:13:20;;;;;;;2.05;1.77;;;;;;;11.87;100.00;97940.88;5058461;28;20032;-90
2022/05/05 06:15:46;;;;;;;0.85;0.85;;;;;;;12.04;100.00;97950.56;5057591;28;20440;-90
2022/05/05 06:18:11;;;;;;;18.90;5.35;;;;;;;12.33;100.00;97955.00;5057935;28;20037;-90
2022/05/05 06:20:37;;;;;;;6.78;3.60;;;;;;;12.63;100.00;97970.13;5042053;28;20033;-90
2022/05/05 06:23:03;;;;;;;2.75;2.20;;;;;;;12.85;100.00;97976.72;5045427;28;20025;-90
2022/05/05 06:25:29;;;;;;;1.10;1.00;;;;;;;12.99;100.00;97970.44;5060371;28;20160;-95
2022/05/05 06:27:57;;;;;;;6.20;2.97;;;;;;;13.07;100.00;97957.41;5047191;28;20039;-92
2022/05/05 06:30:23;;;;;;;1.40;1.30;;;;;;;13.25;100.00;97961.59;5062297;28;20498;-94
2022/05/05 06:32:48;;;;;;;5.65;2.38;;;;;;;13.28;100.00;97949.78;5049728;28;20037;-93
2022/05/05 06:35:14;;;;;;;1.92;1.42;;;;;;;13.57;99.96;97971.06;5054387;28;20028;-93
2022/05/05 06:37:40;;;;;;;15.20;3.88;;;;;;;13.39;100.00;97966.91;5048516;28;20039;-93
2022/05/05 06:40:06;;;;;;;2.58;1.25;;;;;;;13.56;99.69;97985.47;5061167;28;20044;-94
2022/05/05 06:42:32;;;;;;;3.13;1.70;;;;;;;13.66;98.16;97984.84;5043786;28;20040;-93
2022/05/05 06:45:42;;;;;;;1.58;1.25;;;;;;;14.33;94.76;97992.75;5043615;28;20033;-93
2022/05/05 06:48:08;;;;;;;2.40;1.45;;;;;;;14.70;92.87;97956.00;5077869;28;20144;-92
2022/05/05 06:50:34;;;;;;;4.22;1.52;;;;;;;16.52;81.34;97983.44;5063507;28;20052;-93
2022/05/05 06:53:00;;;;;;;2.25;0.98;;;;;;;17.86;70.91;97974.22;5044617;28;20039;-93
2022/05/05 06:55:26;;;;;;;1.27;1.20;;;;;;;18.64;67.68;97975.66;5043921;28;20039;-92
2022/05/05 06:57:52;;;;;;;5.70;1.27;;;;;;;20.21;61.06;97982.06;5059489;28;20033;-93
2022/05/05 07:00:18;;;;;;;2.55;1.73;;;;;;;21.08;58.17;97989.91;5041291;28;20382;-94
2022/05/05 07:02:43;;;;;;;5.00;2.15;;;;;;;20.82;57.23;97987.97;5046402;28;20039;-94
2022/05/05 07:05:26;;;;;;;1.40;1.20;;;;;;;20.31;58.71;97988.34;5046687;28;20036;-93
2022/05/05 07:07:52;;;;;;;2.97;2.00;;;;;;;21.35;54.86;97985.50;5068819;28;20060;-92
2022/05/05 07:13:05;;;;;;;3.63;2.03;;;;;;;24.23;46.53;97955.94;5058673;28;20040;-92
2022/05/05 07:15:31;;;;;;;2.35;1.27;;;;;;;25.66;43.97;97948.59;5043729;28;20021;-92
2022/05/05 07:18:53;;;;;;;2.42;1.70;;;;;;;25.52;43.20;97960.34;5066581;28;20053;-90
2022/05/05 07:21:20;;;;;;;4.50;1.48;;;;;;;25.16;44.47;97951.72;5081699;28;20029;-91
2022/05/05 07:23:46;;;;;;;6.45;2.75;;;;;;;24.09;45.13;97967.50;5047888;28;20075;-92
2022/05/05 07:26:14;;;;;;;1.52;0.98;;;;;;;24.58;45.14;97973.88;5050035;28;20031;-93
2022/05/05 07:28:39;;;;;;;1.95;1.75;;;;;;;25.18;44.45;97955.13;5047493;28;20037;-94
2022/05/05 07:31:05;;;;;;;8.63;1.40;;;;;;;24.67;45.54;97964.66;5048937;28;20025;-93
2022/05/05 07:33:31;;;;;;;3.25;1.98;;;;;;;24.24;44.73;97968.59;5048579;28;20029;-92
2022/05/05 07:35:57;;;;;;;2.28;1.45;;;;;;;26.12;42.19;97946.75;5051338;28;20055;-92
2022/05/05 07:38:22;;;;;;;2.22;1.80;;;;;;;27.00;41.03;97960.81;5047190;28;20509;-92
2022/05/05 07:40:49;;;;;;;2.25;1.50;;;;;;;26.90;41.29;97961.06;5049520;28;20032;-93
2022/05/05 07:43:14;;;;;;;6.53;1.25;;;;;;;26.51;39.84;97952.16;5053203;28;20465;-95
2022/05/05 07:45:40;;;;;;;2.08;1.75;;;;;;;26.08;41.66;97960.00;5063209;28;20021;-94
2022/05/05 07:48:06;;;;;;;5.93;2.10;;;;;;;26.27;41.53;97973.25;5040498;28;20114;-94
2022/05/05 07:50:32;;;;;;;4.20;1.30;;;;;;;25.94;41.52;97966.25;5057614;28;20024;-94
2022/05/05 07:52:57;;;;;;;3.80;2.00;;;;;;;28.01;38.59;97967.28;5059734;28;20511;-93
2022/05/05 07:55:23;;;;;;;1.17;1.10;;;;;;;28.65;37.45;97957.19;5060203;28;20098;-93
2022/05/05 07:57:48;;;;;;;1.15;1.15;;;;;;;29.59;35.00;97942.78;5047629;28;20025;-94
2022/05/05 08:00:15;;;;;;;4.63;1.52;;;;;;;29.51;36.08;97954.00;5046349;28;20044;-90
2022/05/05 08:02:41;;;;;;;3.80;1.65;;;;;;;28.02;37.73;97963.50;5041213;28;20096;-92
2022/05/05 08:05:09;;;;;;;2.85;2.42;;;;;;;26.47;39.62;97967.28;5041466;28;20047;-91
2022/05/05 08:07:35;;;;;;;2.50;1.55;;;;;;;28.15;37.95;97960.88;5059098;28;20137;-92
2022/05/05 08:10:01;;;;;;;1.70;1.35;;;;;;;29.18;35.68;97957.56;5040415;28;20037;-92
2022/05/05 08:12:27;;;;;;;3.20;1.20;;;;;;;27.92;36.19;97955.53;5039539;28;20041;-91
2022/05/05 08:14:53;;;;;;;1.70;1.13;;;;;;;28.81;34.96;97956.03;5057175;28;20039;-92
2022/05/05 08:17:18;;;;;;;2.03;1.83;;;;;;;30.10;34.99;97964.44;5042538;28;20029;-93
2022/05/05 08:19:44;;;;;;;1.42;0.77;;;;;;;30.60;33.69;97952.91;5043486;28;20028;-91
2022/05/05 08:22:10;;;;;;;1.02;0.95;;;;;;;31.01;32.15;97954.63;5040518;28;20028;-91
2022/05/05 08:30:05;;;;;;;1.83;1.05;;;;;;;31.73;31.99;97937.00;5046900;28;20631;-91
2022/05/05 08:32:31;;;;;;;0.98;0.75;;;;;;;31.39;31.59;97950.06;5060444;28;20055;-91
2022/05/05 08:34:57;;;;;;;0.50;0.40;;;;;;;32.67;29.95;97933.28;5043689;28;20009;-91
2022/05/05 08:37:22;;;;;;;1.17;1.08;;;;;;;32.45;30.49;97934.72;5042462;28;20044;-91
2022/05/05 08:39:48;;;;;;;6.28;1.08;;;;;;;31.71;30.68;97940.00;5060351;28;20057;-90
2022/05/05 08:42:14;;;;;;;0.85;0.82;;;;;;;30.80;30.62;97939.06;5045526;28;20033;-91
2022/05/05 08:44:40;;;;;;;1.58;0.77;;;;;;;31.85;30.56;97932.47;5041771;28;20029;-90
2022/05/05 08:47:09;;;;;;;15.05;1.30;;;;;;;32.16;29.78;97929.78;5039285;28;20036;-91
2022/05/05 08:49:37;;;;;;;0.40;0.40;;;;;;;31.79;29.61;97931.44;5054930;28;20025;-89
2022/05/05 08:52:03;;;;;;;0.50;0.50;;;;;;;31.59;30.07;97934.28;5055022;28;20569;-89
2022/05/05 08:54:32;;;;;;;2.50;1.15;;;;;;;32.92;28.39;97929.66;5037561;28;20113;-90
2022/05/05 08:56:58;;;;;;;0.57;0.57;;;;;;;32.87;29.08;97926.72;5054548;28;20027;-90
2022/05/05 08:59:25;;;;;;;0.38;0.20;;;;;;;31.69;28.85;97918.06;5039228;28;20439;-91
2022/05/05 09:01:52;;;;;;;0.88;0.30;;;;;;;28.02;33.95;97938.72;5038821;28;20021;-91
2022/05/05 09:04:21;;;;;;;2.45;0.98;;;;;;;29.69;34.02;97945.16;5037401;28;20088;-91
2022/05/05 09:06:51;;;;;;;0.20;0.10;;;;;;;30.64;32.92;97947.78;5038072;28;20063;-90
2022/05/05 09:09:24;;;;;;;0.50;0.50;;;;;;;30.92;31.13;97947.56;5056512;28;20044;-89
2022/05/05 09:12:14;;;;;;;0.60;0.52;;;;;;;30.19;31.11;97946.63;5055318;28;20025;-89
2022/05/05 09:14:51;;;;;;;0.77;0.50;;;;;;;30.84;30.62;97945.03;5072432;28;20516;-90
2022/05/05 09:17:19;;;;;;;2.35;1.20;;;;;;;30.75;31.48;97954.59;5018873;28;20036;-89
2022/05/05 09:19:52;;;;;;;3.15;2.45;;;;;;;31.88;29.96;97943.97;5055917;28;20040;-90
2022/05/05 09:22:22;;;;;;;5.13;2.50;;;;;;;31.53;28.12;97918.56;5039926;28;20025;-90
2022/05/05 09:24:51;;;;;;;4.05;2.35;;;;;;;30.21;30.04;97941.75;5039773;28;20076;-91
2022/05/05 09:27:24;;;;;;;6.93;1.92;;;;;;;30.71;28.26;97923.78;5039131;28;20393;-91
2022/05/05 09:29:56;;;;;;;3.42;2.70;;;;;;;31.93;27.76;97923.94;5044998;28;20033;-89
2022/05/05 09:32:26;;;;;;;5.15;4.20;;;;;;;33.01;26.12;97906.97;5076534;28;20060;-90
2022/05/05 09:34:59;;;;;;;3.17;2.30;;;;;;;33.59;25.65;97915.81;5044690;28;20040;-90
2022/05/05 09:37:26;;;;;;;6.00;2.88;;;;;;;33.85;25.46;97903.50;5038055;28;20090;-89
2022/05/05 09:39:56;;;;;;;6.43;2.58;;;;;;;33.72;26.34;97907.28;5037082;28;20029;-88
2022/05/05 09:42:34;;;;;;;5.72;2.50;;;;;;;33.36;27.13;97921.16;5053382;28;20025;-87
2022/05/05 09:45:22;;;;;;;8.45;2.97;;;;;;;33.32;26.45;97911.59;5050683;28;20493;-87
2022/05/05 09:47:53;;;;;;;8.27;3.17;;;;;;;33.73;27.00;97892.34;5058660;28;20459;-88
2022/05/05 09:50:21;;;;;;;8.23;2.65;;;;;;;35.25;25.10;97910.31;5052752;28;20025;-88
2022/05/05 09:58:22;;;;;;;4.38;2.30;;;;;;;34.49;24.12;97888.91;5047867;28;20024;-89
2022/05/05 10:06:15;;;;;;;6.25;2.58;;;;;;;31.91;27.61;97881.78;5057106;28;20023;-89
2022/05/05 10:08:45;;;;;;;19.35;5.38;;;;;;;33.04;26.71;97884.31;5039204;28;20021;-90
2022/05/05 10:11:14;;;;;;;8.60;3.75;;;;;;;33.84;25.29;97867.66;5056003;28;20207;-89
2022/05/05 10:13:40;;;;;;;8.75;3.58;;;;;;;33.93;24.78;97874.56;5038684;28;20116;-90
2022/05/05 10:16:06;;;;;;;2.95;2.63;;;;;;;34.00;24.21;97870.59;5037838;28;20082;-90
2022/05/05 10:18:37;;;;;;;4.28;2.20;;;;;;;34.05;24.13;97870.75;5055444;28;20086;-91
2022/05/05 10:21:04;;;;;;;11.77;2.45;;;;;;;34.45;24.79;97868.25;5039334;28;20025;-91
2022/05/05 10:23:33;;;;;;;5.10;2.60;;;;;;;34.39;24.94;97888.66;5071524;28;20057;-90
2022/05/05 10:26:00;;;;;;;7.18;3.72;;;;;;;34.32;25.53;97876.78;5072757;28;20032;-90
2022/05/05 10:28:47;;;;;;;6.00;2.40;;;;;;;34.73;25.14;97882.31;5039505;28;20024;-89
2022/05/05 10:31:37;;;;;;;9.18;2.67;;;;;;;34.62;24.60;97883.16;5055648;28;20029;-89
2022/05/05 10:34:06;;;;;;;3.90;2.70;;;;;;;34.39;25.28;97874.75;5055001;28;20032;-88
2022/05/05 10:36:36;;;;;;;7.65;2.35;;;;;;;35.23;24.58;97879.09;5054989;28;20473;-88
2022/05/05 10:39:23;;;;;;;2.60;2.10;;;;;;;35.67;23.82;97864.50;5053680;28;20040;-89
2022/05/05 10:41:51;;;;;;;10.07;2.50;;;;;;;35.38;24.17;97868.28;5039341;28;20036;-89
2022/05/05 10:44:16;;;;;;;6.13;1.90;;;;;;;33.09;25.01;97869.81;5037736;28;20024;-88
2022/05/05 10:47:02;;;;;;;5.32;2.20;;;;;;;33.15;25.41;97861.44;5054749;28;20438;-88
2022/05/05 10:49:31;;;;;;;4.93;1.80;;;;;;;35.17;23.66;97875.34;5036950;28;20025;-89
2022/05/05 10:52:11;;;;;;;3.67;2.80;;;;;;;35.18;24.61;97878.97;5070550;28;20071;-90
2022/05/05 10:54:47;;;;;;;13.05;4.28;;;;;;;35.03;24.96;97871.09;5063473;28;20028;-88
2022/05/05 10:57:25;;;;;;;4.65;2.08;;;;;;;35.33;23.70;97865.41;5047949;28;20408;-89
2022/05/05 11:00:19;;;;;;;2.95;1.80;;;;;;;36.30;22.09;97852.41;5055014;28;20032;-87
2022/05/05 11:03:03;;;;;;;3.85;2.75;;;;;;;36.54;22.65;97865.13;5054033;28;20032;-88
2022/05/05 11:05:39;;;;;;;5.90;2.67;;;;;;;36.00;22.32;97846.19;5070480;28;20091;-89
2022/05/05 11:08:08;;;;;;;3.40;2.10;;;;;;;35.96;22.69;97857.03;5054547;28;20033;-89
2022/05/05 11:11:39;;;;;;;8.60;2.10;;;;;;;35.26;22.54;97856.34;5051570;28;20029;-89
2022/05/05 11:13:35;;;;;;;2.20;1.95;;;;;;;35.78;21.43;97855.25;5052178;28;20047;-90
2022/05/05 11:22:24;;;;;;;3.28;2.10;;;;;;;36.31;20.77;97837.34;5050141;28;20047;-91
2022/05/05 11:24:52;;;;;;;2.97;2.50;;;;;;;35.89;21.51;97831.25;5037544;28;20076;-90
2022/05/05 11:27:23;;;;;;;14.98;3.50;;;;;;;37.75;19.79;97836.22;5037918;28;20120;-90
2022/05/05 11:29:52;;;;;;;;;;;;;;;36.92;20.78;97845.66;5055910;28;20128;-89
2022/05/05 11:32:32;;;;;;;2.38;1.85;;;;;;;33.98;22.88;97842.22;5040284;28;19944;-90
2022/05/05 11:34:59;;;;;;;2.50;2.03;;;;;;;31.91;25.44;97845.78;5036288;28;20529;-90
2022/05/05 11:37:29;;;;;;;12.60;8.95;;;;;;;32.48;24.47;97851.16;5039720;28;20101;-89
2022/05/05 11:39:55;;;;;;;3.30;1.77;;;;;;;33.46;23.28;97843.78;5043540;28;20226;-91
2022/05/05 11:42:23;;;;;;;5.32;1.95;;;;;;;34.89;22.25;97841.81;5041063;28;20037;-91
2022/05/05 11:44:49;;;;;;;3.15;2.00;;;;;;;34.58;22.01;97831.88;5043805;28;20035;-89
2022/05/05 11:47:20;;;;;;;3.65;2.15;;;;;;;35.12;21.60;97824.31;5080010;28;20466;-90
2022/05/05 11:49:51;;;;;;;5.78;2.10;;;;;;;36.17;20.61;97831.25;5072623;28;20035;-90
2022/05/05 11:52:18;;;;;;;2.40;2.20;;;;;;;35.56;20.31;97833.91;5050461;28;20439;-80
2022/05/05 11:54:52;;;;;;;2.90;2.17;;;;;;;35.82;20.15;97822.19;5049171;28;20024;-80
2022/05/05 11:57:40;;;;;;;4.88;2.80;;;;;;;34.59;21.67;97821.59;5029523;28;20044;-80
2022/05/05 12:02:54;;;;;;;2.67;1.80;;;;;;;34.52;21.98;97831.97;5047186;28;20059;-81
2022/05/05 12:05:22;;;;;;;4.65;3.10;;;;;;;33.91;22.89;97821.19;5028335;28;20444;-77
2022/05/05 12:07:50;;;;;;;5.85;2.55;;;;;;;33.79;22.88;97826.69;5043266;28;20032;-77
2022/05/05 12:10:16;;;;;;;7.47;2.13;;;;;;;32.74;22.85;97806.59;5044237;28;20162;-77
2022/05/05 12:12:47;;;;;;;2.30;2.10;;;;;;;33.12;22.36;97824.97;5027908;28;20485;-77
2022/05/05 12:15:16;;;;;;;3.63;1.75;;;;;;;32.91;22.58;97817.09;5023746;28;20048;-77
2022/05/05 12:17:48;;;;;;;12.05;9.23;;;;;;;33.68;22.56;97811.69;5044756;28;20041;-77